Time;durP1;ratioP1;P1;durP2;ratioP2;P2;SDS_P1;SDS_P2;PMS_P1;PMS_P2;Temp;Humidity;BMP_temperature;BMP_pressure;BME280_temperature;BME280_humidity;BME280_pressure;Samples;Min_cycle;Max_cycle;Signal;HPM_P1;HPM_P2
2020/12/29 00:01:57;;;;;;;9.05;6.00;;;2.70;99.90;;;;;;5057529;28;20048;-65
2020/12/29 00:04:27;;;;;;;9.75;5.72;;;2.70;99.90;;;;;;5057835;28;20036;-65
2020/12/29 00:06:56;;;;;;;10.32;6.00;;;2.80;99.90;;;;;;5057086;28;20045;-65
2020/12/29 00:09:28;;;;;;;11.10;5.78;;;2.80;99.90;;;;;;5057753;28;20027;-65
2020/12/29 00:11:56;;;;;;;10.95;6.05;;;2.90;99.90;;;;;;5057179;28;20428;-65
2020/12/29 00:14:27;;;;;;;8.40;4.63;;;2.90;99.90;;;;;;5056016;28;20025;-65
2020/12/29 00:16:55;;;;;;;7.00;4.38;;;3.00;99.90;;;;;;5056958;28;20029;-65
2020/12/29 00:19:25;;;;;;;11.40;5.57;;;3.00;99.90;;;;;;5039343;28;20021;-65
2020/12/29 00:21:53;;;;;;;7.32;4.25;;;3.00;99.90;;;;;;5056985;28;20017;-65
2020/12/29 00:24:21;;;;;;;7.30;4.72;;;3.00;99.90;;;;;;5056923;28;20108;-65
2020/12/29 00:26:49;;;;;;;9.10;4.93;;;2.90;99.90;;;;;;5039099;28;20059;-65
2020/12/29 00:29:16;;;;;;;8.27;4.43;;;2.90;99.90;;;;;;5056828;28;20024;-65
2020/12/29 00:31:44;;;;;;;9.48;5.88;;;2.90;99.90;;;;;;5057289;28;20017;-65
2020/12/29 00:34:12;;;;;;;9.45;4.60;;;2.80;99.90;;;;;;5057323;28;20021;-65
2020/12/29 00:36:40;;;;;;;7.55;4.72;;;2.70;99.90;;;;;;5039036;28;20031;-65
2020/12/29 00:39:07;;;;;;;8.65;6.15;;;2.60;99.90;;;;;;5056657;28;20017;-65
2020/12/29 00:41:35;;;;;;;8.80;6.32;;;2.60;99.90;;;;;;5056364;28;20387;-65
2020/12/29 00:44:04;;;;;;;8.00;4.60;;;2.40;99.90;;;;;;5056900;28;20048;-65
2020/12/29 00:46:32;;;;;;;7.95;4.88;;;2.40;99.90;;;;;;5056483;28;20021;-65
2020/12/29 00:49:00;;;;;;;8.32;4.50;;;2.30;99.90;;;;;;5056595;28;20025;-65
2020/12/29 00:51:28;;;;;;;7.65;4.63;;;2.20;99.90;;;;;;5056541;28;20059;-65
2020/12/29 00:53:55;;;;;;;9.13;5.18;;;2.20;99.90;;;;;;5056446;28;20024;-65
2020/12/29 00:56:23;;;;;;;9.30;5.03;;;2.10;99.90;;;;;;5056450;28;20021;-65
2020/12/29 00:58:50;;;;;;;7.75;4.82;;;2.00;99.90;;;;;;5056582;28;20017;-65
2020/12/29 01:01:18;;;;;;;7.68;4.55;;;1.90;99.90;;;;;;5056600;28;20390;-65
2020/12/29 01:03:46;;;;;;;9.00;4.80;;;1.90;99.90;;;;;;5056378;28;20040;-65
2020/12/29 01:06:13;;;;;;;8.60;5.13;;;1.80;99.90;;;;;;5038532;28;20120;-65
2020/12/29 01:08:41;;;;;;;12.32;5.72;;;1.80;99.90;;;;;;5056367;28;20078;-65
2020/12/29 01:11:09;;;;;;;7.93;4.35;;;1.80;99.90;;;;;;5056288;28;20032;-65
2020/12/29 01:13:36;;;;;;;7.40;4.82;;;1.70;99.90;;;;;;5056312;28;20317;-65
2020/12/29 01:16:06;;;;;;;8.45;5.50;;;1.70;99.90;;;;;;5056181;28;20025;-65
2020/12/29 01:18:36;;;;;;;9.07;4.95;;;1.60;99.90;;;;;;5056793;28;20053;-65
2020/12/29 01:21:04;;;;;;;8.18;5.22;;;1.60;99.90;;;;;;5056847;28;20021;-65
2020/12/29 01:23:33;;;;;;;9.18;5.63;;;1.60;99.90;;;;;;5056247;28;20024;-67
2020/12/29 01:26:01;;;;;;;7.63;4.32;;;1.50;99.90;;;;;;5056367;28;20444;-67
2020/12/29 01:28:29;;;;;;;8.13;5.20;;;1.50;99.90;;;;;;5056161;28;20373;-67
2020/12/29 01:30:57;;;;;;;7.68;4.05;;;1.50;99.90;;;;;;5056415;28;20418;-67
2020/12/29 01:33:25;;;;;;;10.13;4.63;;;1.50;99.90;;;;;;5056081;28;20130;-67
2020/12/29 01:35:53;;;;;;;7.18;4.22;;;1.50;99.90;;;;;;5056094;28;20021;-67
2020/12/29 01:38:21;;;;;;;8.05;4.50;;;1.60;99.90;;;;;;5056106;28;20375;-67
2020/12/29 01:40:49;;;;;;;7.00;3.90;;;1.60;99.90;;;;;;5056594;28;20028;-67
2020/12/29 01:43:17;;;;;;;6.90;4.03;;;1.60;99.90;;;;;;5056277;28;20072;-67
2020/12/29 01:45:45;;;;;;;6.90;3.90;;;1.60;99.90;;;;;;5055900;28;20033;-67
2020/12/29 01:48:12;;;;;;;6.15;3.80;;;1.60;99.90;;;;;;5055830;28;20029;-67
2020/12/29 01:50:40;;;;;;;6.68;3.53;;;1.60;99.90;;;;;;5056493;28;20021;-67
2020/12/29 01:53:08;;;;;;;6.25;3.70;;;1.60;99.90;;;;;;5056401;28;20028;-67
2020/12/29 01:55:36;;;;;;;6.47;4.00;;;1.60;99.90;;;;;;5060308;28;20013;-67
2020/12/29 01:58:04;;;;;;;7.68;4.40;;;1.50;99.90;;;;;;5059716;28;20025;-67
2020/12/29 02:00:33;;;;;;;6.75;3.83;;;1.50;99.90;;;;;;5059979;28;20112;-67
2020/12/29 02:03:01;;;;;;;6.95;4.45;;;1.40;99.90;;;;;;5059725;28;20031;-65
2020/12/29 02:05:29;;;;;;;7.18;4.68;;;1.40;99.90;;;;;;5060060;28;20036;-65
2020/12/29 02:07:57;;;;;;;8.63;4.80;;;1.30;99.90;;;;;;5059374;28;20116;-65
2020/12/29 02:10:26;;;;;;;7.38;4.63;;;1.20;99.90;;;;;;5059956;28;20108;-65
2020/12/29 02:12:56;;;;;;;11.30;5.15;;;1.20;99.90;;;;;;5059438;28;20056;-65
2020/12/29 02:15:24;;;;;;;9.50;4.72;;;1.20;99.90;;;;;;5059282;28;20039;-67
2020/12/29 02:17:52;;;;;;;11.20;6.20;;;1.10;99.90;;;;;;5059892;28;20337;-67
2020/12/29 02:20:19;;;;;;;9.48;5.60;;;1.10;99.90;;;;;;5059503;28;20029;-67
2020/12/29 02:22:46;;;;;;;8.32;5.03;;;1.00;99.90;;;;;;5059717;28;20036;-67
2020/12/29 02:25:14;;;;;;;10.57;5.32;;;1.00;99.90;;;;;;5059710;28;20316;-67
2020/12/29 02:27:47;;;;;;;8.75;5.13;;;1.00;99.90;;;;;;5059042;28;20023;-67
2020/12/29 02:30:16;;;;;;;12.15;5.68;;;0.90;99.90;;;;;;5059291;28;20364;-67
2020/12/29 02:32:44;;;;;;;12.27;5.45;;;0.80;99.90;;;;;;5041355;28;20325;-67
2020/12/29 02:35:15;;;;;;;12.48;6.03;;;0.90;99.90;;;;;;5041317;28;20053;-67
2020/12/29 02:37:43;;;;;;;10.20;5.13;;;0.90;99.90;;;;;;5059428;28;20100;-67
2020/12/29 02:40:11;;;;;;;13.57;6.78;;;0.80;99.90;;;;;;5041206;28;20070;-67
2020/12/29 02:42:38;;;;;;;11.25;6.03;;;0.90;99.90;;;;;;5059349;28;20413;-67
2020/12/29 02:45:07;;;;;;;10.52;5.93;;;0.90;99.90;;;;;;5058628;28;20029;-67
2020/12/29 02:47:35;;;;;;;11.82;5.85;;;0.90;99.90;;;;;;5058706;28;20033;-67
2020/12/29 02:50:04;;;;;;;15.65;6.53;;;1.00;99.90;;;;;;5058668;28;20025;-67
2020/12/29 02:52:32;;;;;;;12.10;5.63;;;1.00;99.90;;;;;;5058676;28;20104;-67
2020/12/29 02:54:59;;;;;;;10.52;5.97;;;0.90;99.90;;;;;;5059189;28;20428;-67
2020/12/29 02:57:27;;;;;;;13.75;6.65;;;0.90;99.90;;;;;;5058588;28;20025;-67
2020/12/29 02:59:55;;;;;;;11.50;5.88;;;0.80;99.90;;;;;;5059122;28;20025;-67
2020/12/29 03:02:23;;;;;;;10.93;6.35;;;0.80;99.90;;;;;;5058440;28;20437;-67
2020/12/29 03:04:51;;;;;;;14.57;7.63;;;0.80;99.90;;;;;;5058345;28;20017;-67
2020/12/29 03:07:19;;;;;;;14.48;6.80;;;0.80;99.90;;;;;;5058282;28;20045;-67
2020/12/29 03:09:46;;;;;;;11.77;5.60;;;0.70;99.90;;;;;;5058884;28;20018;-67
2020/12/29 03:12:13;;;;;;;10.07;5.88;;;0.60;99.90;;;;;;5058555;28;20017;-67
2020/12/29 03:14:41;;;;;;;9.30;5.07;;;0.60;99.90;;;;;;5058805;28;20021;-67
2020/12/29 03:17:09;;;;;;;10.68;6.22;;;0.60;99.90;;;;;;5058094;28;20368;-67
2020/12/29 03:19:36;;;;;;;13.13;6.05;;;0.50;99.90;;;;;;5058186;28;20020;-67
2020/12/29 03:22:04;;;;;;;11.38;6.07;;;0.50;99.90;;;;;;5058134;28;20051;-67
2020/12/29 03:24:31;;;;;;;13.10;6.15;;;0.40;99.90;;;;;;5058859;28;20025;-67
2020/12/29 03:26:59;;;;;;;11.77;5.57;;;0.40;99.90;;;;;;5057937;28;20024;-67
2020/12/29 03:29:27;;;;;;;11.15;6.40;;;0.40;99.90;;;;;;5058520;28;20024;-67
2020/12/29 03:31:55;;;;;;;11.80;6.35;;;0.40;99.90;;;;;;5057904;28;20332;-67
2020/12/29 03:34:26;;;;;;;12.05;5.78;;;0.40;99.90;;;;;;5040172;28;20025;-67
2020/12/29 03:36:54;;;;;;;11.48;5.88;;;0.50;99.90;;;;;;5058172;28;20056;-67
2020/12/29 03:39:21;;;;;;;9.85;5.13;;;0.40;99.90;;;;;;5040045;28;20025;-67
2020/12/29 03:41:49;;;;;;;10.43;5.20;;;0.40;99.90;;;;;;5058551;28;20104;-67
2020/12/29 03:44:16;;;;;;;10.07;5.50;;;0.30;99.90;;;;;;5058201;28;20021;-67
2020/12/29 03:46:44;;;;;;;10.93;5.65;;;0.20;99.90;;;;;;5058346;28;20021;-67
2020/12/29 03:49:12;;;;;;;9.68;5.20;;;0.20;99.90;;;;;;5057569;28;20421;-67
2020/12/29 03:51:40;;;;;;;12.18;6.07;;;0.20;99.90;;;;;;5057623;28;20302;-67
2020/12/29 03:54:07;;;;;;;11.45;5.40;;;0.10;99.90;;;;;;5039781;28;20021;-67
2020/12/29 03:56:35;;;;;;;11.70;5.63;;;0.00;99.90;;;;;;5057975;28;20107;-67
2020/12/29 03:59:03;;;;;;;9.95;5.22;;;0.10;99.90;;;;;;5057908;28;20078;-65
2020/12/29 04:01:31;;;;;;;8.57;5.18;;;0.00;99.90;;;;;;5057301;28;20147;-67
2020/12/29 04:03:59;;;;;;;10.98;5.72;;;0.00;99.90;;;;;;5057298;28;20440;-67
2020/12/29 04:06:27;;;;;;;14.57;5.88;;;-0.10;99.90;;;;;;5057078;28;20056;-67
2020/12/29 04:08:55;;;;;;;15.15;6.35;;;-0.10;99.90;;;;;;5057254;28;20419;-67
2020/12/29 04:11:22;;;;;;;13.00;5.70;;;-0.10;99.90;;;;;;5057214;28;20021;-67
2020/12/29 04:13:52;;;;;;;12.70;6.00;;;-0.10;99.90;;;;;;5057142;28;20429;-67
2020/12/29 04:16:23;;;;;;;11.98;6.03;;;-0.10;99.90;;;;;;5056513;28;20020;-67
2020/12/29 04:18:51;;;;;;;12.38;6.00;;;-0.20;99.90;;;;;;5057054;28;20020;-67
2020/12/29 04:21:19;;;;;;;12.68;5.97;;;-0.10;99.90;;;;;;5056986;28;20496;-67
2020/12/29 04:23:47;;;;;;;13.85;6.93;;;-0.10;99.90;;;;;;5057231;28;20025;-67
2020/12/29 04:26:15;;;;;;;12.07;5.93;;;-0.10;99.90;;;;;;5056814;28;20031;-67
2020/12/29 04:28:43;;;;;;;12.07;5.90;;;-0.10;99.90;;;;;;5057159;28;20349;-67
2020/12/29 04:31:15;;;;;;;11.73;5.43;;;-0.10;99.90;;;;;;5056749;28;20383;-67
2020/12/29 04:33:43;;;;;;;12.48;6.30;;;-0.10;99.90;;;;;;5056614;28;20057;-67
2020/12/29 04:36:11;;;;;;;16.23;6.28;;;-0.10;99.90;;;;;;5056769;28;20021;-67
2020/12/29 04:38:39;;;;;;;9.10;5.38;;;-0.10;99.90;;;;;;5057257;28;20048;-67
2020/12/29 04:41:06;;;;;;;12.98;5.78;;;-0.20;99.90;;;;;;5056652;28;20025;-67
2020/12/29 04:43:35;;;;;;;13.43;6.22;;;-0.20;99.90;;;;;;5056663;28;20048;-67
2020/12/29 04:46:04;;;;;;;10.98;5.68;;;-0.20;99.90;;;;;;5056609;28;20013;-67
2020/12/29 04:48:32;;;;;;;9.93;4.53;;;-0.20;99.90;;;;;;5057049;28;20021;-67
2020/12/29 04:51:07;;;;;;;11.73;6.15;;;-0.20;99.90;;;;;;5056417;28;20032;-67
2020/12/29 04:53:36;;;;;;;12.18;5.63;;;-0.20;99.90;;;;;;5057036;28;20035;-67
2020/12/29 04:56:08;;;;;;;12.23;5.45;;;-0.20;99.90;;;;;;5056490;28;20027;-65
2020/12/29 04:58:37;;;;;;;13.73;5.82;;;-0.10;99.90;;;;;;5056945;28;20027;-65
2020/12/29 05:01:10;;;;;;;10.38;5.32;;;-0.10;99.90;;;;;;5056662;28;20021;-66
2020/12/29 05:03:48;;;;;;;12.88;6.82;;;-0.10;99.90;;;;;;5056385;28;20031;-67
2020/12/29 05:06:16;;;;;;;9.95;4.90;;;0.00;99.90;;;;;;5056254;28;20029;-67
2020/12/29 05:08:48;;;;;;;14.68;5.80;;;0.00;99.90;;;;;;5056474;28;20025;-67
2020/12/29 05:11:16;;;;;;;13.50;5.88;;;0.10;99.90;;;;;;5056578;28;20068;-67
2020/12/29 05:13:45;;;;;;;12.88;6.68;;;0.10;99.90;;;;;;5056280;28;20024;-67
2020/12/29 05:16:13;;;;;;;10.73;5.35;;;0.10;99.90;;;;;;5056199;28;20032;-67
2020/12/29 05:18:41;;;;;;;13.35;5.57;;;0.10;99.90;;;;;;5056247;28;20021;-67
2020/12/29 05:21:08;;;;;;;12.88;5.45;;;0.20;99.90;;;;;;5056265;28;20082;-67
2020/12/29 05:23:37;;;;;;;12.80;5.45;;;0.20;99.90;;;;;;5038565;28;20032;-67
2020/12/29 05:26:06;;;;;;;9.63;5.32;;;0.20;99.90;;;;;;5056201;28;20051;-67
2020/12/29 05:28:33;;;;;;;9.68;5.70;;;0.20;99.90;;;;;;5057821;28;20029;-67
2020/12/29 05:31:03;;;;;;;11.35;5.72;;;0.30;99.90;;;;;;5060161;28;20021;-67
2020/12/29 05:33:31;;;;;;;12.30;5.57;;;0.30;99.90;;;;;;5060133;28;20406;-67
2020/12/29 05:35:59;;;;;;;10.80;4.82;;;0.30;99.90;;;;;;5060706;28;20021;-67
2020/12/29 05:38:27;;;;;;;11.27;4.95;;;0.40;99.90;;;;;;5042427;28;20063;-67
2020/12/29 05:40:55;;;;;;;8.40;4.53;;;0.40;99.90;;;;;;5060008;28;20328;-67
2020/12/29 05:43:31;;;;;;;9.57;4.93;;;0.40;99.90;;;;;;5060546;28;20057;-67
2020/12/29 05:46:07;;;;;;;10.03;5.13;;;0.40;99.90;;;;;;5060432;28;20312;-67
2020/12/29 05:48:34;;;;;;;11.23;4.72;;;0.40;99.90;;;;;;5042138;28;20719;-67
2020/12/29 05:51:13;;;;;;;12.10;5.60;;;0.40;99.90;;;;;;5060392;28;20025;-65
2020/12/29 05:53:42;;;;;;;11.75;5.05;;;0.40;99.90;;;;;;5060348;28;20287;-65
2020/12/29 05:56:11;;;;;;;8.95;4.53;;;0.40;99.90;;;;;;5059787;28;20017;-65
2020/12/29 05:58:39;;;;;;;10.52;5.63;;;0.40;99.90;;;;;;5041940;28;20021;-65
2020/12/29 06:01:08;;;;;;;10.02;5.20;;;0.40;99.90;;;;;;5041855;28;20024;-65
2020/12/29 06:03:38;;;;;;;8.88;4.50;;;0.30;99.90;;;;;;5059873;28;20366;-67
2020/12/29 06:06:09;;;;;;;12.27;4.57;;;0.30;99.90;;;;;;5059705;28;20031;-67
2020/12/29 06:08:37;;;;;;;12.35;4.70;;;0.30;99.90;;;;;;5059439;28;20033;-67
2020/12/29 06:11:14;;;;;;;12.27;5.72;;;0.30;99.90;;;;;;5041749;28;20053;-67
2020/12/29 06:13:48;;;;;;;9.18;5.10;;;0.30;99.90;;;;;;5060002;28;20021;-67
2020/12/29 06:16:17;;;;;;;8.95;5.05;;;0.30;99.90;;;;;;5060115;28;20039;-67
2020/12/29 06:18:47;;;;;;;10.45;5.35;;;0.30;99.90;;;;;;5059872;28;20397;-67
2020/12/29 06:21:18;;;;;;;13.93;5.85;;;0.20;99.90;;;;;;5042273;28;20021;-67
2020/12/29 06:23:48;;;;;;;12.20;5.20;;;0.10;99.90;;;;;;5059549;28;20321;-67
2020/12/29 06:26:20;;;;;;;15.43;5.97;;;0.10;99.90;;;;;;5058986;28;20021;-67
2020/12/29 06:28:55;;;;;;;10.68;5.63;;;0.10;99.90;;;;;;5059148;28;20017;-67
2020/12/29 06:31:30;;;;;;;12.40;6.30;;;0.00;99.90;;;;;;5059059;28;20096;-67
2020/12/29 06:33:58;;;;;;;11.07;5.53;;;0.00;99.90;;;;;;5059039;28;20025;-67
2020/12/29 06:36:28;;;;;;;11.20;4.88;;;0.00;99.90;;;;;;5041259;28;20029;-67
2020/12/29 06:39:03;;;;;;;11.50;5.88;;;0.00;99.90;;;;;;5058455;28;20017;-67
2020/12/29 06:41:34;;;;;;;18.35;6.43;;;0.00;99.90;;;;;;5059201;28;20495;-67
2020/12/29 06:44:05;;;;;;;12.00;5.90;;;0.00;99.90;;;;;;5041173;28;20029;-67
2020/12/29 06:46:32;;;;;;;11.57;5.85;;;0.00;99.90;;;;;;5058927;28;20017;-67
2020/12/29 06:49:20;;;;;;;10.82;5.60;;;0.00;99.90;;;;;;5059330;28;20021;-67
2020/12/29 06:52:08;;;;;;;13.85;5.45;;;0.00;99.90;;;;;;5058601;28;20298;-67
2020/12/29 06:54:54;;;;;;;18.00;6.85;;;-0.10;99.90;;;;;;5058488;28;20021;-67
2020/12/29 06:57:35;;;;;;;16.20;5.82;;;-0.20;99.90;;;;;;5058581;28;20099;-67
2020/12/29 07:00:17;;;;;;;10.70;5.68;;;-0.20;99.90;;;;;;5059140;28;20031;-67
2020/12/29 07:02:50;;;;;;;39.67;16.42;;;-0.20;99.90;;;;;;5058536;28;20033;-65
2020/12/29 07:05:27;;;;;;;14.23;6.82;;;-0.30;99.90;;;;;;5059057;28;20104;-65
2020/12/29 07:08:02;;;;;;;10.88;5.85;;;-0.30;99.90;;;;;;5058250;28;20045;-66
2020/12/29 07:10:46;;;;;;;9.43;5.38;;;-0.30;99.90;;;;;;5058916;28;20305;-66
2020/12/29 07:13:22;;;;;;;12.82;6.28;;;-0.30;99.90;;;;;;5058347;28;20017;-66
2020/12/29 07:15:54;;;;;;;11.30;5.53;;;-0.40;99.90;;;;;;5058121;28;20021;-66
2020/12/29 07:18:29;;;;;;;11.10;5.65;;;-0.40;99.90;;;;;;5058169;28;20036;-66
2020/12/29 07:20:58;;;;;;;12.20;5.72;;;-0.40;99.90;;;;;;5058187;28;20025;-66
2020/12/29 07:23:35;;;;;;;13.52;5.95;;;-0.40;99.90;;;;;;5058120;28;20060;-66
2020/12/29 07:26:07;;;;;;;11.07;5.53;;;-0.40;99.90;;;;;;5058365;28;20490;-66
2020/12/29 07:28:35;;;;;;;11.63;5.90;;;-0.40;99.90;;;;;;5057985;28;20025;-66
2020/12/29 07:31:03;;;;;;;13.23;6.75;;;-0.30;99.90;;;;;;5058466;28;20021;-66
2020/12/29 07:33:35;;;;;;;14.32;6.85;;;-0.40;99.90;;;;;;5057945;28;20101;-66
2020/12/29 07:36:03;;;;;;;19.50;7.10;;;-0.30;99.90;;;;;;5040181;28;20329;-65
2020/12/29 07:38:37;;;;;;;14.30;6.40;;;-0.40;99.90;;;;;;5040437;28;20329;-67
2020/12/29 07:41:05;;;;;;;14.65;6.50;;;-0.40;99.90;;;;;;5057832;28;20120;-65
2020/12/29 07:43:33;;;;;;;15.32;6.55;;;-0.40;99.90;;;;;;5057708;28;20108;-66
2020/12/29 07:46:01;;;;;;;13.77;5.60;;;-0.30;99.90;;;;;;5057639;28;20025;-67
2020/12/29 07:48:29;;;;;;;15.27;6.25;;;-0.30;99.90;;;;;;5057502;28;20107;-66
2020/12/29 07:51:00;;;;;;;14.40;6.38;;;-0.30;99.90;;;;;;5056731;28;20048;-66
2020/12/29 07:53:28;;;;;;;15.43;5.88;;;-0.30;99.90;;;;;;5057555;28;20451;-67
2020/12/29 07:55:57;;;;;;;43.78;12.52;;;-0.30;99.90;;;;;;5057406;28;20021;-65
2020/12/29 07:58:25;;;;;;;24.65;9.98;;;-0.20;99.90;;;;;;5057308;28;20017;-65
2020/12/29 08:00:52;;;;;;;54.90;14.88;;;-0.30;99.90;;;;;;5039779;28;20321;-66
2020/12/29 08:03:20;;;;;;;27.85;10.82;;;-0.20;99.90;;;;;;5057936;28;20029;-67
2020/12/29 08:05:48;;;;;;;15.35;7.03;;;-0.20;99.90;;;;;;5057365;28;20025;-65
2020/12/29 08:08:16;;;;;;;14.73;6.72;;;-0.20;99.90;;;;;;5057154;28;20049;-67
2020/12/29 08:10:44;;;;;;;13.85;6.85;;;-0.20;99.90;;;;;;5057835;28;20021;-66
2020/12/29 08:13:14;;;;;;;14.82;7.20;;;-0.10;99.90;;;;;;5057757;28;20049;-66
2020/12/29 08:15:43;;;;;;;12.50;5.70;;;-0.10;99.90;;;;;;5057204;28;20051;-66
2020/12/29 08:18:11;;;;;;;17.58;7.60;;;-0.10;99.90;;;;;;5057119;28;20316;-66
2020/12/29 08:20:50;;;;;;;16.77;7.22;;;-0.10;99.90;;;;;;5057016;28;20105;-65
2020/12/29 08:23:20;;;;;;;44.53;14.30;;;0.00;99.90;;;;;;5057578;28;20029;-66
2020/12/29 08:25:56;;;;;;;42.28;14.40;;;0.00;99.90;;;;;;5057221;28;20078;-67
2020/12/29 08:28:28;;;;;;;20.38;8.13;;;0.10;99.90;;;;;;5056835;28;20108;-66
2020/12/29 08:30:57;;;;;;;23.27;8.18;;;0.20;99.90;;;;;;5039088;28;20079;-66
2020/12/29 08:33:25;;;;;;;16.23;6.38;;;0.30;99.90;;;;;;5056837;28;20024;-68
2020/12/29 08:35:59;;;;;;;9.77;5.22;;;0.40;99.90;;;;;;5039124;28;20029;-65
2020/12/29 08:38:42;;;;;;;10.75;6.38;;;0.40;99.90;;;;;;5056782;28;20086;-66
2020/12/29 08:41:13;;;;;;;13.35;5.78;;;0.50;99.90;;;;;;5039042;28;20059;-65
2020/12/29 08:43:51;;;;;;;13.95;5.88;;;0.70;99.90;;;;;;5039040;28;20379;-65
2020/12/29 08:46:23;;;;;;;19.35;8.95;;;0.70;99.90;;;;;;5056869;28;20100;-67
2020/12/29 08:49:08;;;;;;;10.85;6.13;;;0.80;99.90;;;;;;5056637;28;20074;-67
2020/12/29 08:51:43;;;;;;;14.20;7.20;;;0.90;99.90;;;;;;5038864;28;20021;-67
2020/12/29 08:54:21;;;;;;;15.20;6.57;;;1.00;99.90;;;;;;5057031;28;20043;-67
2020/12/29 08:56:49;;;;;;;11.50;5.25;;;1.10;99.90;;;;;;5057072;28;20052;-65
2020/12/29 08:59:21;;;;;;;16.60;7.07;;;1.20;99.90;;;;;;5038613;28;20333;-66
2020/12/29 09:01:57;;;;;;;11.10;6.35;;;1.30;99.90;;;;;;5056984;28;20025;-65
2020/12/29 09:04:28;;;;;;;13.57;7.17;;;1.40;99.90;;;;;;5056470;28;20021;-66
2020/12/29 09:06:57;;;;;;;13.25;7.82;;;1.50;99.90;;;;;;5056604;28;20290;-66
2020/12/29 09:09:24;;;;;;;14.35;7.82;;;1.50;99.90;;;;;;5056771;28;20035;-65
2020/12/29 09:12:10;;;;;;;11.60;6.68;;;1.60;99.90;;;;;;5056291;28;20017;-66
2020/12/29 09:14:38;;;;;;;15.13;6.93;;;1.70;99.90;;;;;;5056888;28;20075;-67
2020/12/29 09:17:08;;;;;;;13.68;7.82;;;1.70;99.90;;;;;;5056274;28;20029;-67
2020/12/29 09:19:36;;;;;;;11.93;6.72;;;1.80;99.90;;;;;;5038616;28;20036;-66
2020/12/29 09:22:12;;;;;;;13.93;6.28;;;1.80;99.90;;;;;;5056065;28;20417;-66
2020/12/29 09:24:52;;;;;;;11.15;5.30;;;1.80;99.90;;;;;;5056161;28;20032;-66
2020/12/29 09:27:34;;;;;;;9.18;5.05;;;1.80;99.90;;;;;;5056546;28;20025;-67
2020/12/29 09:30:21;;;;;;;26.27;14.52;;;1.90;99.90;;;;;;5038358;28;20037;-66
2020/12/29 09:32:53;;;;;;;18.05;9.55;;;1.90;99.90;;;;;;5056122;28;20412;-66
2020/12/29 09:35:27;;;;;;;15.38;9.02;;;2.00;99.90;;;;;;5056077;28;20025;-66
2020/12/29 09:37:58;;;;;;;13.50;6.75;;;2.00;99.90;;;;;;5055965;28;20029;-66
2020/12/29 09:40:26;;;;;;;10.95;6.10;;;2.00;99.90;;;;;;5038252;28;20029;-66
2020/12/29 09:42:53;;;;;;;13.57;7.53;;;2.10;99.90;;;;;;5055923;28;20421;-66
2020/12/29 09:45:24;;;;;;;20.58;10.93;;;2.10;99.90;;;;;;5055929;28;20025;-66
2020/12/29 09:47:52;;;;;;;11.85;7.07;;;2.10;99.90;;;;;;5056477;28;20051;-66
2020/12/29 09:50:20;;;;;;;13.93;6.03;;;2.20;99.90;;;;;;5056268;28;20025;-66
2020/12/29 09:52:47;;;;;;;13.55;6.20;;;2.20;99.90;;;;;;5056514;28;20021;-66
2020/12/29 09:55:15;;;;;;;12.43;6.03;;;2.20;99.90;;;;;;5055833;28;20076;-67
2020/12/29 09:57:44;;;;;;;10.65;6.53;;;2.30;99.90;;;;;;5056332;28;20313;-66
2020/12/29 10:00:11;;;;;;;9.60;5.43;;;2.40;99.90;;;;;;5038091;28;20056;-66
2020/12/29 10:02:39;;;;;;;9.20;5.55;;;2.50;99.90;;;;;;5055852;28;20040;-66
2020/12/29 10:05:06;;;;;;;9.73;5.65;;;2.50;99.90;;;;;;5055723;28;20021;-66
2020/12/29 10:07:34;;;;;;;9.05;5.35;;;2.60;99.90;;;;;;5055661;28;20055;-66
2020/12/29 10:10:01;;;;;;;10.10;5.97;;;2.70;99.90;;;;;;5055747;28;20468;-66
2020/12/29 10:12:29;;;;;;;9.77;6.00;;;2.70;99.90;;;;;;5055736;28;20107;-66
2020/12/29 10:14:57;;;;;;;11.25;5.90;;;2.70;99.90;;;;;;5057439;28;20028;-66
2020/12/29 10:17:25;;;;;;;10.15;5.10;;;2.80;99.90;;;;;;5041418;28;20033;-65
2020/12/29 10:19:56;;;;;;;9.48;5.82;;;2.90;99.90;;;;;;5059233;28;20056;-66
2020/12/29 10:22:25;;;;;;;11.30;5.75;;;2.90;99.90;;;;;;5059729;28;20029;-66
2020/12/29 10:24:53;;;;;;;8.45;5.22;;;3.00;99.90;;;;;;5059211;28;20059;-66
2020/12/29 10:27:21;;;;;;;10.15;5.47;;;3.00;99.90;;;;;;5059689;28;20071;-66
2020/12/29 10:29:49;;;;;;;13.25;5.13;;;3.00;99.90;;;;;;5059118;28;20033;-66
2020/12/29 10:32:20;;;;;;;8.15;4.95;;;3.10;99.90;;;;;;5059053;28;20132;-66
2020/12/29 10:34:52;;;;;;;7.88;4.82;;;3.00;99.90;;;;;;5059250;28;20088;-66
2020/12/29 10:37:19;;;;;;;11.65;5.03;;;3.10;99.90;;;;;;5059524;28;20029;-66
2020/12/29 10:39:47;;;;;;;8.90;5.40;;;3.10;99.90;;;;;;5059174;28;20417;-66
2020/12/29 10:42:15;;;;;;;11.13;4.82;;;3.20;99.90;;;;;;5059463;28;20040;-66
2020/12/29 10:44:42;;;;;;;7.75;4.97;;;3.20;99.90;;;;;;5058884;28;20025;-66
2020/12/29 10:47:10;;;;;;;8.52;5.18;;;3.20;99.90;;;;;;5058695;28;20025;-66
2020/12/29 10:49:39;;;;;;;11.85;5.93;;;3.30;99.90;;;;;;5059107;28;20047;-66
2020/12/29 10:52:06;;;;;;;8.95;5.20;;;3.30;99.90;;;;;;5041007;28;20029;-65
2020/12/29 10:54:34;;;;;;;11.70;6.40;;;3.40;99.90;;;;;;5059234;28;20172;-67
2020/12/29 10:57:01;;;;;;;12.75;5.75;;;3.40;99.90;;;;;;5040873;28;20025;-66
2020/12/29 10:59:29;;;;;;;9.15;5.65;;;3.40;99.90;;;;;;5058657;28;20025;-64
2020/12/29 11:01:58;;;;;;;10.07;5.38;;;3.50;99.90;;;;;;5058525;28;20322;-64
2020/12/29 11:04:26;;;;;;;12.10;5.95;;;3.60;99.90;;;;;;5058502;28;20344;-64
2020/12/29 11:06:54;;;;;;;10.32;5.13;;;3.60;99.90;;;;;;5058665;28;20048;-64
2020/12/29 11:09:21;;;;;;;9.20;5.75;;;3.70;99.90;;;;;;5058443;28;20036;-65
2020/12/29 11:11:49;;;;;;;8.93;5.20;;;3.80;99.90;;;;;;5058335;28;20299;-64
2020/12/29 11:14:17;;;;;;;9.15;5.40;;;3.90;99.90;;;;;;5058215;28;20024;-66
2020/12/29 11:16:50;;;;;;;9.68;4.85;;;3.90;99.90;;;;;;5040394;28;20032;-66
2020/12/29 11:19:18;;;;;;;10.30;6.10;;;4.00;99.90;;;;;;5058143;28;20440;-67
2020/12/29 11:21:49;;;;;;;12.18;5.80;;;4.00;99.90;;;;;;5058064;28;20033;-66
2020/12/29 11:24:16;;;;;;;11.30;6.40;;;4.00;99.90;;;;;;5058057;28;20079;-67
2020/12/29 11:26:45;;;;;;;15.57;6.07;;;4.00;99.90;;;;;;5040420;28;20036;-67
2020/12/29 11:29:13;;;;;;;12.30;7.43;;;4.00;99.90;;;;;;5057992;28;20325;-67
2020/12/29 11:31:40;;;;;;;7.95;5.13;;;4.10;99.90;;;;;;5057948;28;20056;-66
2020/12/29 11:34:08;;;;;;;11.52;6.43;;;4.10;99.90;;;;;;5057822;28;20017;-67
2020/12/29 11:36:36;;;;;;;11.10;7.13;;;4.10;99.90;;;;;;5058441;28;20112;-66
2020/12/29 11:39:03;;;;;;;8.85;5.78;;;4.10;99.90;;;;;;5040357;28;20418;-66
2020/12/29 11:41:31;;;;;;;11.20;6.40;;;4.10;99.90;;;;;;5023559;28;20027;-67
2020/12/29 11:44:01;;;;;;;9.70;6.07;;;4.10;99.90;;;;;;5058045;28;20027;-64
2020/12/29 11:46:28;;;;;;;9.32;6.20;;;4.10;99.90;;;;;;5057850;28;20021;-64
2020/12/29 11:48:55;;;;;;;10.27;6.15;;;4.10;99.90;;;;;;5058094;28;20032;-64
2020/12/29 11:51:23;;;;;;;9.55;5.85;;;4.10;99.90;;;;;;5058368;28;20405;-63
2020/12/29 11:53:51;;;;;;;11.15;6.53;;;4.00;99.90;;;;;;5057572;28;20052;-63
2020/12/29 11:56:18;;;;;;;11.90;6.72;;;4.00;99.90;;;;;;5057491;28;20040;-63
2020/12/29 11:58:46;;;;;;;10.00;6.25;;;4.00;99.90;;;;;;5058022;28;20356;-63
2020/12/29 12:01:14;;;;;;;14.15;6.88;;;3.90;99.90;;;;;;5040063;28;20423;-62
2020/12/29 12:03:43;;;;;;;10.52;5.72;;;4.00;99.90;;;;;;5057946;28;20032;-65
2020/12/29 12:06:10;;;;;;;8.43;5.30;;;4.00;99.90;;;;;;5057688;28;20021;-66
2020/12/29 12:08:37;;;;;;;8.95;5.50;;;4.00;99.90;;;;;;5057226;28;20063;-65
2020/12/29 12:11:06;;;;;;;11.10;5.70;;;4.00;99.90;;;;;;5057193;28;20154;-65
2020/12/29 12:13:34;;;;;;;9.10;5.30;;;4.00;99.90;;;;;;5057208;28;20490;-65
2020/12/29 12:16:03;;;;;;;11.82;5.70;;;4.10;99.90;;;;;;5057675;28;20310;-66
2020/12/29 12:18:30;;;;;;;10.55;5.95;;;4.10;99.90;;;;;;5057318;28;20302;-68
2020/12/29 12:21:00;;;;;;;10.48;5.32;;;4.10;99.90;;;;;;5057489;28;20091;-67
2020/12/29 12:23:28;;;;;;;7.40;4.72;;;4.10;99.90;;;;;;5056853;28;20028;-67
2020/12/29 12:25:57;;;;;;;8.10;4.95;;;4.10;99.90;;;;;;5057648;28;20020;-66
2020/12/29 12:28:25;;;;;;;6.85;4.45;;;4.10;99.90;;;;;;5056816;28;20025;-67
2020/12/29 12:30:52;;;;;;;14.40;4.60;;;4.10;99.90;;;;;;5056672;28;20025;-67
2020/12/29 12:33:20;;;;;;;6.95;4.30;;;4.10;99.90;;;;;;5056794;28;20037;-64
2020/12/29 12:35:48;;;;;;;15.48;4.07;;;4.10;99.90;;;;;;5057339;28;20013;-64
2020/12/29 12:38:15;;;;;;;7.20;3.90;;;4.10;99.90;;;;;;5056914;28;20031;-64
2020/12/29 12:40:43;;;;;;;12.82;4.15;;;4.00;99.90;;;;;;5056715;28;20086;-64
2020/12/29 12:43:10;;;;;;;5.95;3.53;;;4.10;99.90;;;;;;5056689;28;20017;-64
2020/12/29 12:45:38;;;;;;;7.97;3.33;;;4.10;99.90;;;;;;5056567;28;20028;-64
2020/12/29 12:48:05;;;;;;;9.50;3.17;;;4.10;99.90;;;;;;5057116;28;20417;-64
2020/12/29 12:50:33;;;;;;;5.93;2.67;;;4.10;99.90;;;;;;5038924;28;20329;-64
2020/12/29 12:53:00;;;;;;;8.15;3.00;;;4.10;99.90;;;;;;5057201;28;20305;-66
2020/12/29 12:55:28;;;;;;;9.10;2.92;;;4.10;99.90;;;;;;5056596;28;20017;-67
2020/12/29 12:57:55;;;;;;;4.15;2.05;;;4.10;99.90;;;;;;5057016;28;20037;-67
2020/12/29 13:00:24;;;;;;;7.47;2.63;;;4.10;99.90;;;;;;5056970;28;20017;-67